Terminal Aerodrome Forecast
Issued by NWS

Home | Current Version | Previous Version | Text Only | Print | Product List | Glossary On
Versions: 1 2 3 4 5 6 7 8 9 10 11 12 13 14
000
FTUS45 KVEF 050535
TAFBIH
TAF
KBIH 050535Z 0506/0606 33006KT P6SM FEW140
     FM052200 23010G18KT P6SM FEW140
     FM060300 31008KT P6SM FEW140 BKN200=

USA.gov is the U.S. government's official web portal to all federal, state and local government web resources and services.